LPPS

Details ICAO LPPS (PXO)
Name Porto Santo
Region Portugal
Timezone Atlantic/Madeira (UTC+1.0)
Plans Departing 98
Arriving 96
Stats Elevation 340 ft / 104 m (AMSL)
Location 33.073413° -16.349946°
Runways 1
Magnetic Variation 4.756° W
Sunrise 2018-06-18 05:57:47 UTC / 2018-06-18 06:57:47 Local
Sunset 2018-06-18 20:17:49 UTC / 2018-06-18 21:17:49 Local
Advertisement - Login to hide

Runways

ID Width Length Bearing (true) Bearing (mag) Surface Threshold Offset Overrun Length
18 148 ft / 45 m 9,890 ft / 3,014 m 178.11° 182.87° Asphalt 0 ft / 0 m 0 ft / 0 m
36 148 ft / 45 m 9,890 ft / 3,014 m 358.12° 2.88° Asphalt 0 ft / 0 m 499 ft / 152 m

Map

Weather


0- 5 10 15 20 25 30 35+ Temperature / ° C

Clouds and Precipitation
Forecast for 2018-06-18 12:00 UTC. Updated 5 hours ago

Ground ~20,000 ft ~40,000 ft Winds

METAR

LPPS 181430Z 01012KT 9999 SCT010 BKN030 20/16 Q1020

TAF

TAF LPPS 181100Z 1812/1918 03013KT 9999 SCT012 BKN030 PROB30 TEMPO 1812/1820 02015G25KT 5000 DZ BKN005 BECMG 1818/1820 36010KT BECMG 1910/1913 33010KT

Frequencies

Tower 118.75 MHz TWR
Approach 123.30 MHz GCA
Tower 118.40 MHz TWR
Warning: Do not use this data for real-world aviation or navigation. No guarantee of current accuracy is given.